createdAt,value
2022-11-14T00:00:12.896Z,10.68
2022-11-14T00:03:06.107Z,11.80
2022-11-14T00:05:54.698Z,13.85
2022-11-14T00:08:42.985Z,12.38
2022-11-14T00:11:31.059Z,10.60
2022-11-14T00:14:19.172Z,10.43
2022-11-14T00:17:07.953Z,16.08
2022-11-14T00:19:58.351Z,11.20
2022-11-14T00:22:46.412Z,13.75
2022-11-14T00:25:34.592Z,13.75
2022-11-14T00:28:22.715Z,11.77
2022-11-14T00:31:12.091Z,13.50
2022-11-14T00:34:00.275Z,11.55
2022-11-14T00:36:50.896Z,11.07
2022-11-14T00:39:38.901Z,11.55
2022-11-14T00:42:26.946Z,11.98
2022-11-14T00:45:15.035Z,10.50
2022-11-14T00:48:03.249Z,12.00
2022-11-14T00:50:51.594Z,10.95
2022-11-14T00:53:42.288Z,11.60
2022-11-14T00:56:30.484Z,13.70
2022-11-14T00:59:18.498Z,12.55
2022-11-14T01:02:06.487Z,12.55
2022-11-14T01:04:54.695Z,11.13
2022-11-14T01:07:42.993Z,14.90
2022-11-14T01:10:34.064Z,12.13
2022-11-14T01:13:22.747Z,11.30
2022-11-14T01:16:10.906Z,11.57
2022-11-14T01:18:58.605Z,12.13
2022-11-14T01:21:46.643Z,11.27
2022-11-14T01:24:34.920Z,13.18
2022-11-14T01:27:25.391Z,11.63
2022-11-14T01:30:14.272Z,12.27
2022-11-14T01:33:02.144Z,11.40
2022-11-14T01:35:50.157Z,12.75
2022-11-14T01:38:38.627Z,14.03
2022-11-14T01:41:26.680Z,13.93
2022-11-14T01:44:18.362Z,13.15
2022-11-14T01:47:06.400Z,12.20
2022-11-14T01:49:56.435Z,13.40
2022-11-14T01:52:45.921Z,10.90
2022-11-14T01:55:33.837Z,13.05
2022-11-14T01:58:21.690Z,12.10
2022-11-14T02:01:12.123Z,13.27
2022-11-14T02:04:00.744Z,13.60
2022-11-14T02:06:49.437Z,12.25
2022-11-14T02:09:39.230Z,13.10
2022-11-14T02:12:27.839Z,15.20
2022-11-14T02:15:16.281Z,12.60
2022-11-14T02:18:07.386Z,13.60
2022-11-14T02:20:57.949Z,10.87
2022-11-14T02:23:46.436Z,16.17
2022-11-14T02:26:36.872Z,13.10
2022-11-14T02:29:25.320Z,11.03
2022-11-14T02:32:13.401Z,13.70
2022-11-14T02:35:01.552Z,13.23
2022-11-14T02:37:52.369Z,13.47
2022-11-14T02:40:40.439Z,13.67
2022-11-14T02:43:28.575Z,14.23
2022-11-14T02:46:16.667Z,12.93
2022-11-14T02:49:04.392Z,14.37
2022-11-14T02:51:52.610Z,13.43
2022-11-14T02:54:43.295Z,17.27
2022-11-14T02:57:31.496Z,16.37
2022-11-14T03:00:20.443Z,11.30
2022-11-14T03:03:08.557Z,12.77
2022-11-14T03:06:01.290Z,15.57
2022-11-14T03:08:49.283Z,15.60
2022-11-14T03:11:41.353Z,13.73
2022-11-14T03:14:29.837Z,12.23
2022-11-14T03:17:17.765Z,11.77
2022-11-14T03:20:06.958Z,12.17
2022-11-14T03:22:54.701Z,12.60
2022-11-14T03:25:42.910Z,13.87
2022-11-14T03:28:33.868Z,13.63
2022-11-14T03:31:22.018Z,15.37
2022-11-14T03:34:10.193Z,14.47
2022-11-14T03:36:58.558Z,14.57
2022-11-14T03:39:46.678Z,13.03
2022-11-14T03:42:36.390Z,14.37
2022-11-14T03:45:27.239Z,12.97
2022-11-14T03:48:15.790Z,14.63
2022-11-14T03:51:03.885Z,13.47
2022-11-14T03:53:52.039Z,14.70
2022-11-14T03:56:40.205Z,14.53
2022-11-14T03:59:28.315Z,14.43
2022-11-14T04:02:19.004Z,13.43
2022-11-14T04:05:07.361Z,11.87
2022-11-14T04:07:55.552Z,14.97
2022-11-14T04:10:44.189Z,13.43
2022-11-14T04:13:32.079Z,12.47
2022-11-14T04:16:20.269Z,16.20
2022-11-14T04:19:10.955Z,17.20
2022-11-14T04:21:59.009Z,14.57
2022-11-14T04:24:47.081Z,17.67
2022-11-14T04:27:35.061Z,14.67
2022-11-14T04:30:23.307Z,12.80
2022-11-14T04:33:11.399Z,14.27
2022-11-14T04:36:02.388Z,12.27
2022-11-14T04:38:50.578Z,13.67
2022-11-14T04:41:38.702Z,17.27
2022-11-14T04:44:26.717Z,15.97
2022-11-14T04:47:14.909Z,11.67
2022-11-14T04:50:03.058Z,14.83
2022-11-14T04:52:56.493Z,14.27
2022-11-14T04:55:46.648Z,14.03
2022-11-14T04:58:34.513Z,14.83
2022-11-14T05:01:22.276Z,11.60
2022-11-14T05:04:10.293Z,16.13
2022-11-14T05:06:58.438Z,13.10
2022-11-14T05:09:49.122Z,13.97
2022-11-14T05:12:37.561Z,11.23
2022-11-14T05:15:25.826Z,13.13
2022-11-14T05:18:13.857Z,14.03
2022-11-14T05:21:02.599Z,13.07
2022-11-14T05:23:50.729Z,15.43
2022-11-14T05:26:41.401Z,13.00
2022-11-14T05:29:29.487Z,14.27
2022-11-14T05:32:18.724Z,13.50
2022-11-14T05:35:07.262Z,15.70
2022-11-14T05:37:59.043Z,12.07
2022-11-14T05:40:48.024Z,14.67
2022-11-14T05:43:39.067Z,12.47
2022-11-14T05:46:27.160Z,11.23
2022-11-14T05:49:19.279Z,15.57
2022-11-14T05:52:10.037Z,12.53
2022-11-14T05:54:58.173Z,12.00
2022-11-14T05:57:46.174Z,14.57
2022-11-14T06:00:44.276Z,11.00
2022-11-14T06:03:37.540Z,13.10
2022-11-14T06:06:25.873Z,11.90
2022-11-14T06:09:14.155Z,14.40
2022-11-14T06:12:06.157Z,15.80
2022-11-14T06:14:54.131Z,14.00
2022-11-14T06:17:44.803Z,13.43
2022-11-14T06:20:32.780Z,12.13
2022-11-14T06:23:24.779Z,13.93
2022-11-14T06:26:15.853Z,12.03
2022-11-14T06:29:04.087Z,11.80
2022-11-14T06:31:52.614Z,10.87
2022-11-14T06:34:43.559Z,11.53
2022-11-14T06:37:33.776Z,12.53
2022-11-14T06:40:22.213Z,11.60
2022-11-14T06:43:10.064Z,14.30
2022-11-14T06:45:58.023Z,13.27
2022-11-14T06:48:47.052Z,10.90
2022-11-14T06:51:37.519Z,9.93
2022-11-14T06:54:25.612Z,10.53
2022-11-14T06:57:14.429Z,10.37
2022-11-14T07:00:02.870Z,10.73
2022-11-14T07:02:51.141Z,12.03
2022-11-14T07:05:39.331Z,12.10
2022-11-14T07:08:30.668Z,12.43
2022-11-14T07:11:23.088Z,10.50
2022-11-14T07:14:11.936Z,10.47
2022-11-14T07:17:00.872Z,9.47
2022-11-14T07:19:48.773Z,12.17
2022-11-14T07:22:36.951Z,10.40
2022-11-14T07:25:27.619Z,10.63
2022-11-14T07:28:15.631Z,10.10
2022-11-14T07:31:05.531Z,10.97
2022-11-14T07:33:53.634Z,9.37
2022-11-14T07:36:42.255Z,11.93
2022-11-14T07:39:30.301Z,9.23
2022-11-14T07:42:21.036Z,13.93
2022-11-14T07:45:09.742Z,9.57
2022-11-14T07:47:58.518Z,12.37
2022-11-14T07:50:47.735Z,11.20
2022-11-14T07:53:36.021Z,8.73
2022-11-14T07:56:25.954Z,11.18
2022-11-14T07:59:16.355Z,9.60
2022-11-14T08:02:04.450Z,10.40
2022-11-14T08:04:52.414Z,10.97
2022-11-14T08:07:40.585Z,10.55
2022-11-14T08:10:33.266Z,9.23
2022-11-14T08:13:36.908Z,10.10
2022-11-14T08:16:27.504Z,12.23
2022-11-14T08:19:16.863Z,10.13
2022-11-14T08:22:05.294Z,12.95
2022-11-14T08:24:53.343Z,10.30
2022-11-14T08:27:41.475Z,10.48
2022-11-14T08:30:29.788Z,12.23
2022-11-14T08:33:20.276Z,13.48
2022-11-14T08:36:09.568Z,12.45
2022-11-14T08:39:01.860Z,9.50
2022-11-14T08:41:50.680Z,12.23
2022-11-14T08:44:38.910Z,10.83
2022-11-14T08:47:27.124Z,10.57
2022-11-14T08:50:17.940Z,8.98
2022-11-14T08:53:06.243Z,9.55
2022-11-14T08:55:54.442Z,10.35
2022-11-14T08:58:42.774Z,10.20
2022-11-14T09:01:32.804Z,9.85
2022-11-14T09:04:21.033Z,10.07
2022-11-14T09:07:12.025Z,8.43
2022-11-14T09:09:59.971Z,11.50
2022-11-14T09:12:48.255Z,9.48
2022-11-14T09:15:36.659Z,8.85
2022-11-14T09:18:25.041Z,11.70
2022-11-14T09:21:13.466Z,9.93
2022-11-14T09:24:04.249Z,10.60
2022-11-14T09:26:56.995Z,10.07
2022-11-14T09:29:45.727Z,9.32
2022-11-14T09:32:33.931Z,12.15
2022-11-14T09:35:22.390Z,8.95
2022-11-14T09:38:11.419Z,8.10
2022-11-14T09:41:12.273Z,9.13
2022-11-14T09:44:20.257Z,10.55
2022-11-14T09:47:20.225Z,7.60
2022-11-14T09:50:14.034Z,8.77
2022-11-14T09:53:04.452Z,7.40
2022-11-14T09:55:52.729Z,13.02
2022-11-14T09:58:43.830Z,8.43
2022-11-14T10:01:38.246Z,8.38
2022-11-14T10:04:28.970Z,7.35
2022-11-14T10:07:22.286Z,8.23
2022-11-14T10:10:17.807Z,8.73
2022-11-14T10:13:09.732Z,6.93
2022-11-14T10:16:06.272Z,8.48
2022-11-14T10:19:02.594Z,9.82
2022-11-14T10:21:57.550Z,8.88
2022-11-14T10:24:54.122Z,7.50
2022-11-14T10:27:53.916Z,6.82
2022-11-14T10:30:48.487Z,6.75
2022-11-14T10:33:45.395Z,5.63
2022-11-14T10:36:41.756Z,6.03
2022-11-14T10:39:34.350Z,5.45
2022-11-14T10:42:25.835Z,4.63
2022-11-14T10:45:19.869Z,5.40
2022-11-14T10:48:12.588Z,4.10
2022-11-14T10:51:06.293Z,5.10
2022-11-14T10:53:57.954Z,4.53
2022-11-14T10:56:49.976Z,4.78
2022-11-14T10:59:38.384Z,4.45
2022-11-14T11:02:26.938Z,4.13
2022-11-14T11:05:18.044Z,5.32
2022-11-14T11:08:42.504Z,5.20
2022-11-14T11:11:34.579Z,6.35
2022-11-14T11:14:22.965Z,4.07
2022-11-14T11:17:19.753Z,4.03
2022-11-14T11:20:25.506Z,3.53
2022-11-14T11:23:22.245Z,3.47
2022-11-14T11:26:11.238Z,3.17
2022-11-14T11:29:07.052Z,3.92
2022-11-14T11:31:55.515Z,3.83
2022-11-14T11:34:43.967Z,3.70
2022-11-14T11:37:35.606Z,3.83
2022-11-14T11:40:28.303Z,3.83
2022-11-14T11:46:32.089Z,3.33
2022-11-14T11:49:22.157Z,2.75
2022-11-14T11:52:14.863Z,3.25
2022-11-14T11:55:06.617Z,3.35
2022-11-14T11:58:00.784Z,3.30
2022-11-14T12:00:49.278Z,4.18
2022-11-14T12:03:38.160Z,3.58
2022-11-14T12:06:27.537Z,3.28
2022-11-14T12:09:18.160Z,3.53
2022-11-14T12:12:08.136Z,4.15
2022-11-14T12:15:04.703Z,3.40
2022-11-14T12:18:13.508Z,3.55
2022-11-14T12:21:12.873Z,3.70
2022-11-14T12:24:10.077Z,3.83
2022-11-14T12:27:03.365Z,3.60
2022-11-14T12:29:57.864Z,3.08
2022-11-14T12:32:51.089Z,4.10
2022-11-14T12:35:39.953Z,3.55
2022-11-14T12:38:29.306Z,3.50
2022-11-14T12:41:23.076Z,4.18
2022-11-14T12:44:21.485Z,2.95
2022-11-14T12:47:22.871Z,3.00
2022-11-14T12:50:26.309Z,2.63
2022-11-14T12:53:36.081Z,2.45
2022-11-14T12:56:38.946Z,2.65
2022-11-14T12:59:42.401Z,2.45
2022-11-14T13:02:45.602Z,2.63
2022-11-14T13:05:49.169Z,2.00
2022-11-14T13:08:47.317Z,2.72
2022-11-14T13:11:51.876Z,2.65
2022-11-14T13:15:06.690Z,2.55
2022-11-14T13:18:17.760Z,2.10
2022-11-14T13:21:19.790Z,2.22
2022-11-14T13:24:08.203Z,3.08
2022-11-14T13:26:56.897Z,2.15
2022-11-14T13:29:54.249Z,2.13
2022-11-14T13:32:57.941Z,2.22
2022-11-14T13:35:59.531Z,2.85
2022-11-14T13:39:05.326Z,2.58
2022-11-14T13:42:14.223Z,2.38
2022-11-14T13:45:07.710Z,2.55
2022-11-14T13:48:10.958Z,1.83
2022-11-14T13:51:15.543Z,2.08
2022-11-14T13:54:17.671Z,2.67
2022-11-14T13:57:14.406Z,2.38
2022-11-14T14:00:07.315Z,1.73
2022-11-14T14:03:13.197Z,2.30
2022-11-14T14:06:11.901Z,2.40
2022-11-14T14:09:18.421Z,2.50
2022-11-14T14:12:14.511Z,2.75
2022-11-14T14:15:10.601Z,2.30
2022-11-14T14:18:06.189Z,1.90
2022-11-14T14:20:57.878Z,2.20
2022-11-14T14:23:51.410Z,1.65
2022-11-14T14:26:46.001Z,1.90
2022-11-14T14:29:38.712Z,1.48
2022-11-14T14:32:29.574Z,1.75
2022-11-14T14:35:25.409Z,1.70
2022-11-14T14:38:14.401Z,1.58
2022-11-14T14:41:05.048Z,1.50
2022-11-14T14:43:54.208Z,1.77
2022-11-14T14:46:42.384Z,1.65
2022-11-14T14:49:31.918Z,1.38
2022-11-14T14:52:23.597Z,1.17
2022-11-14T14:55:21.867Z,1.00
2022-11-14T14:58:22.357Z,1.50
2022-11-14T15:01:13.855Z,1.77
2022-11-14T15:04:05.366Z,2.72
2022-11-14T15:06:56.093Z,2.75
2022-11-14T15:09:53.808Z,2.00
2022-11-14T15:12:42.953Z,2.35
2022-11-14T15:15:33.686Z,1.88
2022-11-14T15:18:25.339Z,1.98
2022-11-14T15:21:16.576Z,2.42
2022-11-14T15:24:06.053Z,1.25
2022-11-14T15:26:54.148Z,1.55
2022-11-14T15:29:48.130Z,2.15
2022-11-14T15:32:39.056Z,1.48
2022-11-14T15:35:29.282Z,1.50
2022-11-14T15:41:33.412Z,4.10
2022-11-14T15:44:34.040Z,1.88
2022-11-14T15:47:26.904Z,2.70
2022-11-14T15:50:29.528Z,2.80
2022-11-14T15:53:20.802Z,2.20
2022-11-14T15:56:11.427Z,2.88
2022-11-14T15:58:59.552Z,2.38
2022-11-14T16:01:49.211Z,3.40
2022-11-14T16:10:20.117Z,2.95
2022-11-14T16:13:08.235Z,2.97
2022-11-14T16:15:56.690Z,2.28
2022-11-14T16:18:44.828Z,2.08
2022-11-14T16:21:32.942Z,2.53
2022-11-14T16:24:21.985Z,3.05
2022-11-14T16:27:12.667Z,3.22
2022-11-14T16:30:00.741Z,5.05
2022-11-14T16:32:49.155Z,6.55
2022-11-14T16:35:37.353Z,5.72
2022-11-14T16:38:25.069Z,6.30
2022-11-14T16:41:16.259Z,4.82
2022-11-14T16:44:06.723Z,6.00
2022-11-14T16:46:54.747Z,4.47
2022-11-14T16:49:42.894Z,3.53
2022-11-14T16:52:30.814Z,2.63
2022-11-14T16:55:19.024Z,7.30
2022-11-14T16:58:06.891Z,2.85
2022-11-14T17:00:58.600Z,2.67
2022-11-14T17:03:47.115Z,3.22
2022-11-14T17:06:34.899Z,2.72
2022-11-14T17:09:22.966Z,3.58
2022-11-14T17:12:11.516Z,3.30
2022-11-14T17:14:59.418Z,4.43
2022-11-14T17:17:50.436Z,4.93
2022-11-14T17:20:39.643Z,5.03
2022-11-14T17:23:27.870Z,3.08
2022-11-14T17:26:16.514Z,3.92
2022-11-14T17:29:04.756Z,3.70
2022-11-14T17:31:52.833Z,3.30
2022-11-14T17:34:43.427Z,3.55
2022-11-14T17:37:31.433Z,6.05
2022-11-14T17:40:19.644Z,3.72
2022-11-14T17:43:07.656Z,3.85
2022-11-14T17:45:59.271Z,3.33
2022-11-14T17:48:47.942Z,3.15
2022-11-14T17:51:38.542Z,3.70
2022-11-14T17:54:26.660Z,3.35
2022-11-14T17:57:15.612Z,5.75
2022-11-14T18:00:07.287Z,4.63
2022-11-14T18:02:55.726Z,4.55
2022-11-14T18:05:43.564Z,3.80
2022-11-14T18:08:34.324Z,3.72
2022-11-14T18:11:22.568Z,3.50
2022-11-14T18:14:10.774Z,2.28
2022-11-14T18:17:12.404Z,2.70
2022-11-14T18:20:02.201Z,3.72
2022-11-14T18:22:50.463Z,3.22
2022-11-14T18:25:40.987Z,3.30
2022-11-14T18:28:29.451Z,3.47
2022-11-14T18:31:17.998Z,3.05
2022-11-14T18:34:06.437Z,3.58
2022-11-14T18:36:54.418Z,3.38
2022-11-14T18:39:42.550Z,3.10
2022-11-14T18:42:33.217Z,3.63
2022-11-14T18:45:21.614Z,3.50
2022-11-14T18:48:10.221Z,3.63
2022-11-14T18:51:03.272Z,3.83
2022-11-14T18:53:51.611Z,3.53
2022-11-14T18:56:39.642Z,3.42
2022-11-14T18:59:30.772Z,2.83
2022-11-14T19:02:19.081Z,3.95
2022-11-14T19:05:07.258Z,3.00
2022-11-14T19:07:55.101Z,3.40
2022-11-14T19:10:43.554Z,3.35
2022-11-14T19:13:32.087Z,3.53
2022-11-14T19:16:23.072Z,4.63
2022-11-14T19:19:11.488Z,3.45
2022-11-14T19:21:59.595Z,4.15
2022-11-14T19:24:48.071Z,3.60
2022-11-14T19:27:36.399Z,3.20
2022-11-14T19:30:24.613Z,4.32
2022-11-14T19:33:15.235Z,4.47
2022-11-14T19:36:07.377Z,3.88
2022-11-14T19:38:56.336Z,4.65
2022-11-14T19:41:44.456Z,4.18
2022-11-14T19:44:32.442Z,4.05
2022-11-14T19:47:20.741Z,3.90
2022-11-14T19:50:12.317Z,3.47
2022-11-14T19:53:00.119Z,4.13
2022-11-14T19:55:48.567Z,3.78
2022-11-14T19:58:38.134Z,4.07
2022-11-14T20:01:27.355Z,3.28
2022-11-14T20:04:16.100Z,3.60
2022-11-14T20:07:07.056Z,3.92
2022-11-14T20:09:55.375Z,4.80
2022-11-14T20:12:43.576Z,5.43
2022-11-14T20:15:32.391Z,4.50
2022-11-14T20:18:20.728Z,3.47
2022-11-14T20:21:09.057Z,4.53
2022-11-14T20:23:59.949Z,4.22
2022-11-14T20:26:48.543Z,3.65
2022-11-14T20:29:37.195Z,3.50
2022-11-14T20:32:25.496Z,5.32
2022-11-14T20:35:13.879Z,4.38
2022-11-14T20:38:04.441Z,3.92
2022-11-14T20:40:59.326Z,3.75
2022-11-14T20:43:47.555Z,3.42
2022-11-14T20:46:35.862Z,3.72
2022-11-14T20:49:24.352Z,4.10
2022-11-14T20:52:12.533Z,3.75
2022-11-14T20:55:00.660Z,3.75
2022-11-14T20:57:51.416Z,3.83
2022-11-14T21:00:39.582Z,3.22
2022-11-14T21:03:28.263Z,4.03
2022-11-14T21:06:17.175Z,3.47
2022-11-14T21:09:05.211Z,3.47
2022-11-14T21:11:53.254Z,3.17
2022-11-14T21:14:44.110Z,2.92
2022-11-14T21:17:33.414Z,3.72
2022-11-14T21:20:21.630Z,3.58
2022-11-14T21:23:09.977Z,3.38
2022-11-14T21:26:05.048Z,3.85
2022-11-14T21:28:55.039Z,3.40
2022-11-14T21:31:46.593Z,7.95
2022-11-14T21:34:34.445Z,4.32
2022-11-14T21:37:22.689Z,2.78
2022-11-14T21:40:12.018Z,3.67
2022-11-14T21:43:00.342Z,3.00
2022-11-14T21:45:55.992Z,3.47
2022-11-14T21:48:48.091Z,3.42
2022-11-14T21:51:36.526Z,3.00
2022-11-14T21:54:24.643Z,3.33
2022-11-14T21:57:12.625Z,5.63
2022-11-14T22:00:00.871Z,3.80
2022-11-14T22:03:01.491Z,3.13
2022-11-14T22:05:52.135Z,3.33
2022-11-14T22:08:39.999Z,3.33
2022-11-14T22:11:28.158Z,3.40
2022-11-14T22:14:16.415Z,3.28
2022-11-14T22:17:04.849Z,3.08
2022-11-14T22:19:53.202Z,2.80
2022-11-14T22:22:44.234Z,3.40
2022-11-14T22:25:32.376Z,2.75
2022-11-14T22:28:21.010Z,3.53
2022-11-14T22:31:09.731Z,2.88
2022-11-14T22:34:00.119Z,3.08
2022-11-14T22:36:48.378Z,3.60
2022-11-14T22:39:39.229Z,3.20
2022-11-14T22:42:27.505Z,4.57
2022-11-14T22:45:16.033Z,3.08
2022-11-14T22:48:04.479Z,4.93
2022-11-14T22:50:59.662Z,3.00
2022-11-14T22:53:48.817Z,3.45
2022-11-14T22:56:39.245Z,3.53
2022-11-14T22:59:27.476Z,3.25
2022-11-14T23:02:15.930Z,4.22
2022-11-14T23:05:04.091Z,4.35
2022-11-14T23:07:52.360Z,3.88
2022-11-14T23:10:40.829Z,2.65
2022-11-14T23:13:32.050Z,4.72
2022-11-14T23:16:21.298Z,3.17
2022-11-14T23:19:09.721Z,3.28
2022-11-14T23:21:58.196Z,3.15
2022-11-14T23:24:45.967Z,4.03
2022-11-14T23:27:33.816Z,5.25
2022-11-14T23:30:24.774Z,4.82
2022-11-14T23:33:12.996Z,5.50
2022-11-14T23:36:01.152Z,4.05
2022-11-14T23:38:49.547Z,8.48
2022-11-14T23:41:37.918Z,7.05
2022-11-14T23:44:26.284Z,5.47
2022-11-14T23:47:17.245Z,6.18
2022-11-14T23:50:05.275Z,8.38
2022-11-14T23:52:53.667Z,3.80
2022-11-14T23:55:42.255Z,6.88
2022-11-14T23:58:30.412Z,4.70
